ADDS METAR Data INFO
IDs: Format: Raw Decoded Include TAF

Data at: 0643 UTC 23 Feb 2018

KDSV 230620Z AUTO 15005KT 10SM BKN017 OVC040 02/M01 A3056 RMK AO2 T00171011 $
KDSV 230554Z AUTO 13006KT 10SM OVC038 02/M01 A3056 RMK AO2 SLP366 T00171011 10017 20006 58021 $
KDSV 230538Z AUTO 13005KT 10SM SCT018 OVC036 02/M01 A3057 RMK AO2 T00171011 $
KDSV 230454Z AUTO 14004KT 10SM OVC018 01/M01 A3060 RMK AO2 SLP378 T00111011 400221006 $
KDSV 230354Z AUTO 12007KT 10SM OVC017 01/M02 A3060 RMK AO2 SLP380 T00111017 $
KDSV 230254Z AUTO 00000KT 10SM BKN018 OVC034 01/M01 A3062 RMK AO2 SLP387 T00111006 51002 $
KDSV 230154Z AUTO 00000KT 6SM BR OVC019 01/M01 A3062 RMK AO2 SLP387 T00061006
KDSV 230054Z AUTO 15003KT 8SM OVC020 01/M01 A3063 RMK AO2 SLP388 T00061006
KDSV 222354Z AUTO 33004KT 10SM OVC020 01/M01 A3062 RMK AO2 SLP385 60026 T00061006 10017 20000 53008
KDSV 222254Z AUTO 00000KT 10SM OVC021 01/M01 A3060 RMK AO2 SLP379 T00111006
KDSV 222154Z AUTO 00000KT 10SM OVC019 02/M01 A3058 RMK AO2 SLP371 P0002 T00171006
KDSV 222131Z AUTO 00000KT 10SM BKN021 01/M01 A3058 RMK AO2 P0002 T00111006
KDSV 222116Z AUTO 00000KT 10SM SCT017 01/M01 A3058 RMK AO2 P0002 T00111006
KDSV 222054Z AUTO 36003KT 10SM BKN015 02/M01 A3059 RMK AO2 SNE11 SLP377 P0011 60024 T00171006 55020
KDSV 222051Z AUTO 36003KT 10SM BKN015 02/M01 A3059 RMK AO2 SNE11 P0011
KDSV 222019Z AUTO 00000KT 9SM FEW005 SCT010 BKN070 01/M01 A3061 RMK AO2 SNE11 P0005 T00061006
KDSV 222006Z AUTO 00000KT 6SM -SN BR FEW004 BKN008 OVC031 01/M01 A3061 RMK AO2 P0003 T00061006
KDSV 221954Z AUTO 00000KT 4SM -SN BR BKN004 BKN011 OVC032 01/M01 A3062 RMK AO2 SLP385 P0009 T00061006
KDSV 221947Z AUTO 00000KT 3SM -SN BR BKN004 BKN011 OVC034 01/M01 A3062 RMK AO2 P0007 T00061006
KDSV 221934Z AUTO 00000KT 2 1/2SM -SN BR BKN004 BKN010 OVC032 01/00 A3062 RMK AO2 P0005 T00060000
KDSV 221919Z AUTO 33005KT 1 1/4SM -SN BR BKN004 OVC009 01/M01 A3064 RMK AO2 P0002 T00061006
KDSV 221854Z AUTO 33005KT 1SM -SN BR BKN005 OVC009 00/M01 A3065 RMK AO2 CIG 003V008 SLP397 P0004 T00001011
KDSV 221852Z AUTO 34006KT 1SM -SN BR OVC005 00/M01 A3065 RMK AO2 CIG 003V007 P0004
KDSV 221843Z AUTO 33008KT 3/4SM -SN BR BKN005 OVC010 00/M01 A3065 RMK AO2 P0003 T00001011
KDSV 221833Z AUTO 33007KT 3/4SM -SN BR BKN003 OVC010 00/M01 A3064 RMK AO2 PRESRR P0003 T00001011
KDSV 221804Z AUTO 32004KT 1/2SM SN FG FEW003 OVC010 00/M01 A3062 RMK AO2 P0001 T00001011
KDSV 221754Z AUTO 32003KT 1/2SM SN FG VV010 00/M01 A3061 RMK AO2 SLP384 P0003 60008 T00001011 10000 21006 58006
KDSV 221720Z AUTO 32005KT 1/2SM SN FZFG VV008 M01/M02 A3063 RMK AO2 P0002 T10061017
KDSV 221705Z AUTO 32005KT 1/4SM +SN FG VV008 00/M02 A3063 RMK AO2 P0001 T00001017
KDSV 221654Z AUTO 00000KT 1/2SM SN FG VV009 00/M02 A3063 RMK AO2 SLP388 P0003 T00001017
KDSV 221647Z AUTO 00000KT 1/2SM SN FG VV009 00/M02 A3063 RMK AO2 P0002 T00001017
KDSV 221633Z AUTO 00000KT 1/4SM +SN FG VV008 00/M01 A3063 RMK AO2 P0002 T00001011
KDSV 221620Z AUTO 00000KT 1/2SM SN FG VV009 00/M02 A3063 RMK AO2 P0001 T00001017
KDSV 221554Z AUTO 00000KT 1/4SM SN FZFG VV008 M01/M01 A3063 RMK AO2 SLP390 P0002 T10061011
KDSV 221549Z AUTO 00000KT 1/2SM SN FZFG VV009 M01/M02 A3063 RMK AO2 P0001
KDSV 221512Z AUTO 00000KT 1/4SM SN FZFG VV008 M01/M02 A3064 RMK AO2 P0000 T10061017
KDSV 221454Z AUTO 00000KT 1/2SM SN FZFG VV011 M01/M02 A3063 RMK AO2 SLP390 P0000 60000 T10061017 50003
KDSV 221420Z AUTO 00000KT 1/2SM SN FG VV013 00/M02 A3063 RMK AO2 P0000 T00001022
KDSV 221405Z AUTO 00000KT 3/4SM -SN VV019 00/M03 A3064 RMK AO2 P0000 T00001028
KDSV 221354Z AUTO 00000KT 1 1/4SM -SN OVC028 00/M03 A3065 RMK AO2 SNB46 SLP394 P0000 T00001028
KDSV 221352Z AUTO 11003KT 1 3/4SM -SN OVC030 00/M03 A3065 RMK AO2 SNB46 P0000
KDSV 221254Z AUTO 15003KT 10SM FEW019 OVC055 00/M03 A3062 RMK AO2 SLP385 T00001033
KDSV 221154Z AUTO 33005KT 10SM BKN065 OVC080 00/M04 A3062 RMK AO2 SLP385 70002 T00001039 10017 20000 53001
KDSV 221054Z AUTO 31007KT 10SM OVC090 00/M04 A3061 RMK AO2 SLP381 T00001039
KDSV 220954Z AUTO 32007KT 10SM OVC090 01/M04 A3062 RMK AO2 SLP384 T00061044
KDSV 220854Z AUTO 33006KT 10SM OVC090 01/M06 A3062 RMK AO2 SLP383 T00061056 50000
KDSV 220754Z AUTO 33006KT 10SM OVC090 01/M06 A3062 RMK AO2 SLP385 T00061061
KDSV 220654Z AUTO 34006KT 10SM SCT095 BKN120 01/M07 A3063 RMK AO2 SLP387 T00061072
KDSV 220554Z AUTO 34007KT 10SM OVC110 02/M05 A3062 RMK AO2 SLP383 T00171050 10039 20017 53014
KDSV 220454Z AUTO 32005KT 10SM OVC110 02/M03 A3060 RMK AO2 SLP376 T00221028 402220022
KDSV 220354Z AUTO 32004KT 10SM SCT100 02/M02 A3058 RMK AO2 SLP368 T00221022
KDSV 212354Z AUTO 34006KT 10SM OVC065 04/M02 A3055 RMK AO2 SLP356 60001 T00391022 10061 20039 53027
KDSV 212254Z AUTO 32012KT 10SM BKN050 OVC060 05/M01 A3051 RMK AO2 SLP343 T00501006
KDSV 212154Z AUTO 33010KT 10SM FEW020 OVC047 06/01 A3047 RMK AO2 RAE2056 SLP330 P0000 T00560011
KDSV 212152Z AUTO 32010KT 10SM FEW020 SCT025 OVC047 06/01 A3046 RMK AO2 RAE2056 P0000
KDSV 212128Z AUTO 32008KT 10SM BKN021 BKN045 OVC050 06/02 A3045 RMK AO2 RAE2056 P0000 T00560022
KDSV 212054Z AUTO 34007KT 10SM -RA BKN039 OVC047 06/02 A3044 RMK AO2 SLP318 P0000 60001 T00610022 52035
KDSV 212020Z AUTO 33009KT 10SM -RA SCT017 OVC032 06/03 A3042 RMK AO2 P0000 T00610028
KDSV 211954Z AUTO 33009KT 10SM -RA OVC015 06/03 A3041 RMK AO2 RAB09 SLP308 P0000 T00560033
KDSV 211926Z AUTO 32009KT 9SM -RA OVC015 06/04 A3039 RMK AO2 RAB09 P0000 T00560039
KDSV 211854Z AUTO 32010KT 6SM BR FEW007 BKN010 OVC027 06/04 A3036 RMK AO2 RAB02E37 SLP292 P0001 T00610039